LHBP Airport Information

Runway Information
Runway 13L Length 12162 ft width 149 ft
Elevation 495 ft Threshold 0 ft Heading 132
Runway 31R Length 12162 ft Width 149 ft
Elevation 417 ft Threshold 0 ft Heading 312
Runway 13R Length 9875 ft width 149 ft
Elevation 450 ft Threshold 0 ft Heading 132
Runway 31L Length 9875 ft Width 149 ft
Elevation 450 ft Threshold 0 ft Heading 312
Airport Frequencies
Type ACC Name BUDAPEST A Frequency 129.7 MHZ
Type APP Name DIRECTOR Frequency 119.5 MHZ
Type APRS Name Apron Guid Frequency 122.45 MHZ
Type APRW Name Apron Guid Frequency 131.55 MHZ
Type ATIS Name ATIS Frequency 132.375 MHZ
Type CDC Name Delivery Frequency 134.55 MHZ
Type GND Name GND Frequency 121.9 MHZ
Type TWR Name TWR Frequency 118.1 MHZ
Airport Navaids
Type VOR-DME Name Budapest Frequency 117300 KHZ
Type VOR-DME Name Monor Frequency 112500 KHZ
Type NDB Name Monor Frequency 288 KHZ
Type VOR-DME Name Tapiosap Frequency 115900 KHZ
Type NDB Name Tapiosap Frequency 306 KHZ
Airport Weather Information & NOTAM
ADDS - METARS form results

(1424 UTC 01 December 2020)
Data provider http://aviationweather.gov/metar/data/
 
METAR text: LHBP 011407Z 11009KT 4500 BR BKN005 M01/M02 Q1022 NOSIG
Conditions at: LHBP (BUDAPEST/FERIHEG, HU) observed 1407 UTC 01 December 2020
Temperature: -1.0°C (30°F)
Dewpoint: -2.0°C (28°F) [RH = 93%]
Pressure (altimeter): 30.18 inches Hg (1022.0 mb)
Winds: from the ESE (110 degrees) at 10 MPH (9 knots; 4.6 m/s)
Visibility: 2.80 miles (4.51 km)
Ceiling: 500 feet AGL
Clouds: broken clouds at 500 feet AGL
Weather: BR  (mist)

METAR text: LHBP 011400Z 11008KT 5000 BR FEW003 SCT006 M00/M02 Q1022 NOSIG
Conditions at: LHBP (BUDAPEST/FERIHEG, HU) observed 1400 UTC 01 December 2020
Temperature: 0.0°C (32°F)
Dewpoint: -2.0°C (28°F) [RH = 86%]
Pressure (altimeter): 30.18 inches Hg (1022.0 mb)
Winds: from the ESE (110 degrees) at 9 MPH (8 knots; 4.1 m/s)
Visibility: 3 miles ( 5 km)
Ceiling: at least 12,000 feet AGL
Clouds: few clouds at 300 feet AGL
scattered clouds at 600 feet AGL
Weather: BR  (mist)

METAR text: LHBP 011330Z 13008KT 7000 FEW007 01/M01 Q1022 NOSIG
Conditions at: LHBP (BUDAPEST/FERIHEG, HU) observed 1330 UTC 01 December 2020
Temperature: 1.0°C (34°F)
Dewpoint: -1.0°C (30°F) [RH = 86%]
Pressure (altimeter): 30.18 inches Hg (1022.0 mb)
Winds: from the SE (130 degrees) at 9 MPH (8 knots; 4.1 m/s)
Visibility: 4 miles ( 7 km)
Ceiling: at least 12,000 feet AGL
Clouds: few clouds at 700 feet AGL
Weather: no significant weather observed at this time

Forecast for: AMD
Text: TAF AMD LHBP 011400Z 0114/0212 12006KT 7000 BKN025
Forecast period: 1400 to 1600 UTC 01 December 2020
Forecast type: FROM: standard forecast or significant change
Winds: from the ESE (120 degrees) at 7 MPH (6 knots; 3.1 m/s)
Visibility: 4 miles (7 km)
Ceiling: 2500 feet AGL
Clouds: broken clouds at 2500 feet AGL
Weather: no significant weather forecast for this period
Text: TEMPO 0114/0118 3000 BR BKN004
Forecast period: 1400 to 1800 UTC 01 December 2020
Forecast type: TEMPORARY: The following changes expected for less than half the time period
Visibility: 1.86 miles (2.99 km)
Ceiling: 400 feet AGL
Clouds: broken clouds at 400 feet AGL
Weather: BR  (mist)
Text: BECMG 0116/0119 06007KT
Forecast period: 1600 UTC 01 December 2020 to 1200 UTC 02 December 2020
Forecast type: BECOMING: Conditions expected to become as follows by 1900 UTC 01 December 2020
Winds: from the ENE (60 degrees) at 8 MPH (7 knots; 3.6 m/s)
Visibility: 4 miles (7 km)
Ceiling: 2500 feet AGL
Clouds: broken clouds at 2500 feet AGL
Weather: no significant weather forecast for this period
Text: TEMPO 0119/0207 VRB03KT 2500 BR
Forecast period: 1900 UTC 01 December 2020 to 0700 UTC 02 December 2020
Forecast type: TEMPORARY: The following changes expected for less than half the time period
Winds: variable direction winds at 3 MPH (3 knots; 1.5 m/s)
Visibility: 1.55 miles (2.49 km)
Ceiling: unknown
Clouds: missing
Weather: BR  (mist)